• Join FlightAware (Why Join?)
  • Login
  • US Flag 
03:10AM EST


 

Airport Tracker/Info


-or-


 

Live Flight TrackerFlight Track Log ✈ SEJ1275 ✈ 21-Aug-2014 ✈ VOHS / HYD - VOMM / MAA

Flight Track Log - Related Links

Times and Time Zones

All times are in EDT time to prevent confusion due to time zone crossing. See the SEJ1275 flight status page for this flight to view local times or setup timezone preferences in your user account.

Time Position Orientation Groundspeed Altitude Reporting Facility
EDT Latitude Longitude Course Direction KTS MPH feet Rate Location/Type
04:35AM 16.4867 78.7520 158° South  Level Estimated
04:36AM 16.4170 78.7810 158° South  Level Estimated
04:37AM 16.3472 78.8100 158° South  Level Estimated
04:38AM 16.2774 78.8390 158° South  Level Estimated
04:39AM 16.2076 78.8680 158° South  Level Estimated
04:40AM 16.1378 78.8970 158° South  Level Estimated
04:41AM 16.0680 78.9259 158° South  Level Estimated
04:42AM 15.9982 78.9549 158° South  Level Estimated
04:43AM 15.9284 78.9838 158° South  Level Estimated
04:44AM 15.8586 79.0126 158° South  Level Estimated
04:45AM 15.7888 79.0415 158° South  Level Estimated
04:46AM 15.7190 79.0704 158° South  Level Estimated
04:47AM 15.6492 79.0992 158° South  Level Estimated
04:48AM 15.5793 79.1280 158° South  Level Estimated
04:49AM 15.5095 79.1568 158° South  Level Estimated
04:50AM 15.4397 79.1855 158° South  Level Estimated
04:51AM 15.3698 79.2143 158° South  Level Estimated
04:52AM 15.3000 79.2430 158° South  Level Estimated
04:53AM 15.2302 79.2717 158° South  Level Estimated
04:54AM 15.1603 79.3004 158° South  Level Estimated
04:55AM 15.0905 79.3291 158° South  Level Estimated
04:56AM 15.0206 79.3577 158° South  Level Estimated
04:57AM 14.9508 79.3864 158° South  Level Estimated
04:58AM 14.8809 79.4150 158° South  Level Estimated
04:59AM 14.8110 79.4436 158° South  Level Estimated
05:00AM 14.7412 79.4722 158° South  Level Estimated
05:01AM 14.6713 79.5007 158° South  Level Estimated
05:02AM 14.6014 79.5293 158° South  Level Estimated
05:03AM 14.5358 79.5560 158° South  Level Estimated
05:04AM 14.4703 79.5828 158° South  Level Estimated
05:05AM 14.4047 79.6095 158° South  Level Estimated
05:06AM 14.3391 79.6362 158° South  Level Estimated
05:07AM 14.2735 79.6629 158° South  Level Estimated
05:08AM 14.2079 79.6896 158° South  Level Estimated
05:09AM 14.1423 79.7163 158° South  Level Estimated
05:10AM 14.0767 79.7430 158° South  Level Estimated
05:11AM 14.0111 79.7696 158° South  Level Estimated
05:12AM 13.9455 79.7962 158° South  Level Estimated
05:13AM 13.8799 79.8229 159° South  Level Estimated
05:14AM 13.8143 79.8495 159° South  Level Estimated
05:15AM 13.7487 79.8760 159° South  Level Estimated
05:16AM 13.6831 79.9026 159° South  Level Estimated
05:17AM 13.6175 79.9292 159° South  Level Estimated
05:18AM 13.5519 79.9557 159° South  Level Estimated
05:19AM 13.4862 79.9822 159° South  Level Estimated
05:20AM 13.4206 80.0087 159° South  Level Estimated
05:21AM 13.3550 80.0352 159° South  Level Estimated
05:22AM 13.2893 80.0617 159° South  Level Estimated
05:23AM 13.2237 80.0882 159° South  Level Estimated
05:24AM 13.1581 80.1146 159° South  Level Estimated
05:25AM 13.0924 80.1411 159° South  Level Estimated
05:26AM 13.0268 80.1675 159° South  Level Estimated
05:27AM 12.9944 80.1805 159° South  Level Estimated
05:28AM 12.9944 80.1805 North  Level Estimated
05:29AM 12.9944 80.1805 North  Level Estimated
05:30AM 12.9944 80.1805 North  Level Estimated
05:31AM 12.9944 80.1805 North  Level Estimated
05:32AM 12.9944 80.1805 North  Level Estimated
05:33AM 12.9944 80.1805 North  Level Estimated
05:34AM 12.9944 80.1805 North  Level Estimated
05:35AM 12.9944 80.1805 North  Level Estimated
05:36AM 12.9944 80.1805 North  Level Estimated
05:37AM 12.9944 80.1805 North  Level Estimated
05:38AM 12.9944 80.1805 North  Level Estimated